sensor_id;sensor_type;location;lat;lon;timestamp;temperature;humidity
16867;DHT22;8550;52.596;13.320;2022-09-25T00:02:27;12.70;99.90
16867;DHT22;8550;52.596;13.320;2022-09-25T00:07:31;12.60;99.90
16867;DHT22;8550;52.596;13.320;2022-09-25T00:12:32;12.50;99.90
16867;DHT22;8550;52.596;13.320;2022-09-25T00:17:36;12.40;99.90
16867;DHT22;8550;52.596;13.320;2022-09-25T00:22:41;12.40;99.90
16867;DHT22;8550;52.596;13.320;2022-09-25T00:27:43;12.40;99.90
16867;DHT22;8550;52.596;13.320;2022-09-25T00:32:45;12.40;99.90
16867;DHT22;8550;52.596;13.320;2022-09-25T00:37:48;12.50;99.90
16867;DHT22;8550;52.596;13.320;2022-09-25T00:42:51;12.50;99.90
16867;DHT22;8550;52.596;13.320;2022-09-25T00:47:57;12.50;99.90
16867;DHT22;8550;52.596;13.320;2022-09-25T00:53:04;12.40;99.90
16867;DHT22;8550;52.596;13.320;2022-09-25T00:58:07;12.40;99.90
16867;DHT22;8550;52.596;13.320;2022-09-25T01:03:09;12.50;99.90
16867;DHT22;8550;52.596;13.320;2022-09-25T01:08:15;12.50;99.90
16867;DHT22;8550;52.596;13.320;2022-09-25T01:13:28;12.50;99.90
16867;DHT22;8550;52.596;13.320;2022-09-25T01:18:44;12.50;99.90
16867;DHT22;8550;52.596;13.320;2022-09-25T01:24:17;12.60;99.90
16867;DHT22;8550;52.596;13.320;2022-09-25T01:29:27;12.50;99.90
16867;DHT22;8550;52.596;13.320;2022-09-25T01:34:37;12.40;99.90
16867;DHT22;8550;52.596;13.320;2022-09-25T01:39:45;12.40;99.90
16867;DHT22;8550;52.596;13.320;2022-09-25T01:44:52;12.40;99.90
16867;DHT22;8550;52.596;13.320;2022-09-25T01:49:58;12.40;99.90
16867;DHT22;8550;52.596;13.320;2022-09-25T01:55:06;12.40;99.90
16867;DHT22;8550;52.596;13.320;2022-09-25T02:00:14;12.40;99.90
16867;DHT22;8550;52.596;13.320;2022-09-25T02:05:21;12.50;99.90
16867;DHT22;8550;52.596;13.320;2022-09-25T02:10:30;12.60;99.90
16867;DHT22;8550;52.596;13.320;2022-09-25T02:15:39;12.50;99.90
16867;DHT22;8550;52.596;13.320;2022-09-25T02:20:45;12.50;99.90
16867;DHT22;8550;52.596;13.320;2022-09-25T02:25:55;12.60;99.90
16867;DHT22;8550;52.596;13.320;2022-09-25T02:31:02;12.50;99.90
16867;DHT22;8550;52.596;13.320;2022-09-25T02:36:06;12.60;99.90
16867;DHT22;8550;52.596;13.320;2022-09-25T02:41:17;12.60;99.90
16867;DHT22;8550;52.596;13.320;2022-09-25T02:46:28;12.60;99.90
16867;DHT22;8550;52.596;13.320;2022-09-25T02:51:37;12.60;99.90
16867;DHT22;8550;52.596;13.320;2022-09-25T02:56:45;12.60;99.90
16867;DHT22;8550;52.596;13.320;2022-09-25T03:01:49;12.70;99.90
16867;DHT22;8550;52.596;13.320;2022-09-25T03:06:53;12.70;99.90
16867;DHT22;8550;52.596;13.320;2022-09-25T03:11:56;12.70;99.90
16867;DHT22;8550;52.596;13.320;2022-09-25T03:17:01;12.70;99.90
16867;DHT22;8550;52.596;13.320;2022-09-25T03:22:07;12.80;99.90
16867;DHT22;8550;52.596;13.320;2022-09-25T03:27:09;12.80;99.90
16867;DHT22;8550;52.596;13.320;2022-09-25T03:32:12;12.80;99.90
16867;DHT22;8550;52.596;13.320;2022-09-25T03:37:14;12.70;99.90
16867;DHT22;8550;52.596;13.320;2022-09-25T03:42:16;12.70;99.90
16867;DHT22;8550;52.596;13.320;2022-09-25T03:47:20;12.60;99.90
16867;DHT22;8550;52.596;13.320;2022-09-25T03:52:22;12.60;99.90
16867;DHT22;8550;52.596;13.320;2022-09-25T03:57:24;12.70;99.90
16867;DHT22;8550;52.596;13.320;2022-09-25T04:02:28;12.60;99.90
16867;DHT22;8550;52.596;13.320;2022-09-25T04:07:29;12.50;99.90
16867;DHT22;8550;52.596;13.320;2022-09-25T04:12:32;12.50;99.90
16867;DHT22;8550;52.596;13.320;2022-09-25T04:17:35;12.50;99.90
16867;DHT22;8550;52.596;13.320;2022-09-25T04:22:36;12.50;99.90
16867;DHT22;8550;52.596;13.320;2022-09-25T04:27:39;12.50;99.90
16867;DHT22;8550;52.596;13.320;2022-09-25T04:32:42;12.50;99.90
16867;DHT22;8550;52.596;13.320;2022-09-25T04:38:01;12.50;99.90
16867;DHT22;8550;52.596;13.320;2022-09-25T04:43:04;12.40;99.90
16867;DHT22;8550;52.596;13.320;2022-09-25T04:48:07;12.40;99.90
16867;DHT22;8550;52.596;13.320;2022-09-25T04:53:10;12.40;99.90
16867;DHT22;8550;52.596;13.320;2022-09-25T04:58:13;12.40;99.90
16867;DHT22;8550;52.596;13.320;2022-09-25T05:03:16;12.30;99.90
16867;DHT22;8550;52.596;13.320;2022-09-25T05:08:18;12.20;99.90
16867;DHT22;8550;52.596;13.320;2022-09-25T05:13:23;12.20;99.90
16867;DHT22;8550;52.596;13.320;2022-09-25T05:18:26;12.20;99.90
16867;DHT22;8550;52.596;13.320;2022-09-25T05:23:28;12.10;99.90
16867;DHT22;8550;52.596;13.320;2022-09-25T05:28:30;12.10;99.90
16867;DHT22;8550;52.596;13.320;2022-09-25T05:33:34;11.90;99.90
16867;DHT22;8550;52.596;13.320;2022-09-25T05:38:37;11.90;99.90
16867;DHT22;8550;52.596;13.320;2022-09-25T05:43:40;11.80;99.90
16867;DHT22;8550;52.596;13.320;2022-09-25T05:48:44;11.70;99.90
16867;DHT22;8550;52.596;13.320;2022-09-25T05:53:46;11.70;99.90
16867;DHT22;8550;52.596;13.320;2022-09-25T05:58:48;11.70;99.90
16867;DHT22;8550;52.596;13.320;2022-09-25T06:03:55;11.80;99.90
16867;DHT22;8550;52.596;13.320;2022-09-25T06:08:57;11.80;99.90
16867;DHT22;8550;52.596;13.320;2022-09-25T06:14:00;11.90;99.90
16867;DHT22;8550;52.596;13.320;2022-09-25T06:19:05;12.20;99.90
16867;DHT22;8550;52.596;13.320;2022-09-25T06:24:08;12.60;99.90
16867;DHT22;8550;52.596;13.320;2022-09-25T06:29:12;12.90;99.90
16867;DHT22;8550;52.596;13.320;2022-09-25T06:34:18;13.20;99.90
16867;DHT22;8550;52.596;13.320;2022-09-25T06:39:20;13.50;99.90
16867;DHT22;8550;52.596;13.320;2022-09-25T06:44:21;13.70;99.90
16867;DHT22;8550;52.596;13.320;2022-09-25T06:49:25;13.70;99.90
16867;DHT22;8550;52.596;13.320;2022-09-25T06:54:29;13.80;99.90
16867;DHT22;8550;52.596;13.320;2022-09-25T06:59:31;13.90;99.90
16867;DHT22;8550;52.596;13.320;2022-09-25T07:04:35;14.00;99.90
16867;DHT22;8550;52.596;13.320;2022-09-25T07:09:37;14.10;99.90
16867;DHT22;8550;52.596;13.320;2022-09-25T07:14:39;14.20;99.90
16867;DHT22;8550;52.596;13.320;2022-09-25T07:19:44;14.30;99.90
16867;DHT22;8550;52.596;13.320;2022-09-25T07:24:46;14.60;99.90
16867;DHT22;8550;52.596;13.320;2022-09-25T07:29:48;14.60;99.90
16867;DHT22;8550;52.596;13.320;2022-09-25T07:34:51;14.90;99.90
16867;DHT22;8550;52.596;13.320;2022-09-25T07:39:53;14.90;99.90
16867;DHT22;8550;52.596;13.320;2022-09-25T07:44:55;15.00;99.90
16867;DHT22;8550;52.596;13.320;2022-09-25T07:49:58;15.10;99.90
16867;DHT22;8550;52.596;13.320;2022-09-25T07:55:00;15.00;99.90
16867;DHT22;8550;52.596;13.320;2022-09-25T08:00:03;14.80;99.90
16867;DHT22;8550;52.596;13.320;2022-09-25T08:05:08;14.90;99.90
16867;DHT22;8550;52.596;13.320;2022-09-25T08:10:10;15.20;99.90
16867;DHT22;8550;52.596;13.320;2022-09-25T08:15:13;15.60;99.90
16867;DHT22;8550;52.596;13.320;2022-09-25T08:20:16;16.00;99.90
16867;DHT22;8550;52.596;13.320;2022-09-25T08:25:18;16.20;99.90
16867;DHT22;8550;52.596;13.320;2022-09-25T08:30:20;16.00;99.90
16867;DHT22;8550;52.596;13.320;2022-09-25T08:35:23;16.10;99.90
16867;DHT22;8550;52.596;13.320;2022-09-25T08:40:28;16.30;99.90
16867;DHT22;8550;52.596;13.320;2022-09-25T08:45:33;16.50;99.90
16867;DHT22;8550;52.596;13.320;2022-09-25T08:50:54;16.30;99.90
16867;DHT22;8550;52.596;13.320;2022-09-25T08:55:56;16.50;99.90
16867;DHT22;8550;52.596;13.320;2022-09-25T09:01:20;16.90;99.90
16867;DHT22;8550;52.596;13.320;2022-09-25T09:06:26;17.70;99.90
16867;DHT22;8550;52.596;13.320;2022-09-25T09:11:32;18.30;99.90
16867;DHT22;8550;52.596;13.320;2022-09-25T09:16:41;18.60;99.90
16867;DHT22;8550;52.596;13.320;2022-09-25T09:21:50;18.90;99.90
16867;DHT22;8550;52.596;13.320;2022-09-25T09:27:03;18.60;99.90
16867;DHT22;8550;52.596;13.320;2022-09-25T09:32:19;19.10;99.90
16867;DHT22;8550;52.596;13.320;2022-09-25T09:37:33;19.20;99.90
16867;DHT22;8550;52.596;13.320;2022-09-25T09:42:42;18.80;99.90
16867;DHT22;8550;52.596;13.320;2022-09-25T09:47:51;18.70;99.90
16867;DHT22;8550;52.596;13.320;2022-09-25T09:53:02;18.40;99.90
16867;DHT22;8550;52.596;13.320;2022-09-25T09:58:12;18.40;99.90
16867;DHT22;8550;52.596;13.320;2022-09-25T10:03:21;18.50;99.90
16867;DHT22;8550;52.596;13.320;2022-09-25T10:08:29;18.50;99.90
16867;DHT22;8550;52.596;13.320;2022-09-25T10:13:39;18.50;99.90
16867;DHT22;8550;52.596;13.320;2022-09-25T10:24:45;18.90;99.90
16867;DHT22;8550;52.596;13.320;2022-09-25T10:35:19;19.20;99.90
16867;DHT22;8550;52.596;13.320;2022-09-25T10:40:29;19.10;99.90
16867;DHT22;8550;52.596;13.320;2022-09-25T10:45:34;19.40;99.90
16867;DHT22;8550;52.596;13.320;2022-09-25T10:50:36;20.40;99.80
16867;DHT22;8550;52.596;13.320;2022-09-25T10:55:41;21.80;97.20
16867;DHT22;8550;52.596;13.320;2022-09-25T11:00:53;22.00;95.20
16867;DHT22;8550;52.596;13.320;2022-09-25T11:05:57;22.10;94.70
16867;DHT22;8550;52.596;13.320;2022-09-25T11:11:02;21.40;95.00
16867;DHT22;8550;52.596;13.320;2022-09-25T11:16:05;20.70;96.60
16867;DHT22;8550;52.596;13.320;2022-09-25T11:21:18;21.00;97.30
16867;DHT22;8550;52.596;13.320;2022-09-25T11:26:26;20.50;95.10
16867;DHT22;8550;52.596;13.320;2022-09-25T11:31:35;20.00;96.20
16867;DHT22;8550;52.596;13.320;2022-09-25T11:36:42;19.90;96.80
16867;DHT22;8550;52.596;13.320;2022-09-25T11:41:53;19.70;98.20
16867;DHT22;8550;52.596;13.320;2022-09-25T11:47:01;19.80;99.00
16867;DHT22;8550;52.596;13.320;2022-09-25T11:52:33;21.10;96.90
16867;DHT22;8550;52.596;13.320;2022-09-25T12:16:10;21.20;94.20
16867;DHT22;8550;52.596;13.320;2022-09-25T12:22:13;21.40;94.90
16867;DHT22;8550;52.596;13.320;2022-09-25T12:39:43;20.50;95.50
16867;DHT22;8550;52.596;13.320;2022-09-25T13:39:26;20.80;94.20
16867;DHT22;8550;52.596;13.320;2022-09-25T14:21:07;20.50;95.40
16867;DHT22;8550;52.596;13.320;2022-09-25T14:26:19;20.40;95.60
16867;DHT22;8550;52.596;13.320;2022-09-25T14:31:39;20.00;96.80
16867;DHT22;8550;52.596;13.320;2022-09-25T14:36:50;19.70;97.30
16867;DHT22;8550;52.596;13.320;2022-09-25T14:42:25;19.90;95.50
16867;DHT22;8550;52.596;13.320;2022-09-25T14:47:34;19.60;94.90
16867;DHT22;8550;52.596;13.320;2022-09-25T14:52:38;19.60;95.40
16867;DHT22;8550;52.596;13.320;2022-09-25T14:57:41;19.80;96.10
16867;DHT22;8550;52.596;13.320;2022-09-25T15:02:44;20.30;95.90
16867;DHT22;8550;52.596;13.320;2022-09-25T15:07:49;19.60;97.40
16867;DHT22;8550;52.596;13.320;2022-09-25T15:12:51;19.40;99.00
16867;DHT22;8550;52.596;13.320;2022-09-25T15:17:55;19.10;99.90
16867;DHT22;8550;52.596;13.320;2022-09-25T15:23:02;18.90;99.90
16867;DHT22;8550;52.596;13.320;2022-09-25T15:28:05;18.80;99.90
16867;DHT22;8550;52.596;13.320;2022-09-25T15:33:20;18.80;99.90
16867;DHT22;8550;52.596;13.320;2022-09-25T15:38:29;18.80;99.90
16867;DHT22;8550;52.596;13.320;2022-09-25T15:43:31;18.50;99.90
16867;DHT22;8550;52.596;13.320;2022-09-25T15:48:37;18.30;99.90
16867;DHT22;8550;52.596;13.320;2022-09-25T15:53:48;18.30;99.90
16867;DHT22;8550;52.596;13.320;2022-09-25T15:58:54;18.10;99.90
16867;DHT22;8550;52.596;13.320;2022-09-25T16:03:57;18.00;99.90
16867;DHT22;8550;52.596;13.320;2022-09-25T16:09:27;17.70;99.90
16867;DHT22;8550;52.596;13.320;2022-09-25T16:14:29;17.70;99.90
16867;DHT22;8550;52.596;13.320;2022-09-25T16:19:33;17.70;99.90
16867;DHT22;8550;52.596;13.320;2022-09-25T16:24:36;17.20;99.90
16867;DHT22;8550;52.596;13.320;2022-09-25T16:29:38;17.10;99.90
16867;DHT22;8550;52.596;13.320;2022-09-25T16:34:41;16.80;99.90
16867;DHT22;8550;52.596;13.320;2022-09-25T16:45:27;16.40;99.90
16867;DHT22;8550;52.596;13.320;2022-09-25T16:50:36;16.20;99.90
16867;DHT22;8550;52.596;13.320;2022-09-25T16:55:44;16.20;99.90
16867;DHT22;8550;52.596;13.320;2022-09-25T17:00:54;16.00;99.90
16867;DHT22;8550;52.596;13.320;2022-09-25T17:05:56;15.90;99.90
16867;DHT22;8550;52.596;13.320;2022-09-25T17:10:58;15.80;99.90
16867;DHT22;8550;52.596;13.320;2022-09-25T17:16:02;15.70;99.90
16867;DHT22;8550;52.596;13.320;2022-09-25T17:21:09;15.50;99.90
16867;DHT22;8550;52.596;13.320;2022-09-25T17:26:15;15.40;99.90
16867;DHT22;8550;52.596;13.320;2022-09-25T17:31:20;15.20;99.90
16867;DHT22;8550;52.596;13.320;2022-09-25T17:36:22;15.10;99.90
16867;DHT22;8550;52.596;13.320;2022-09-25T17:41:28;15.20;99.90
16867;DHT22;8550;52.596;13.320;2022-09-25T17:46:32;15.10;99.90
16867;DHT22;8550;52.596;13.320;2022-09-25T17:51:35;15.10;99.90
16867;DHT22;8550;52.596;13.320;2022-09-25T18:35:36;14.90;99.90
16867;DHT22;8550;52.596;13.320;2022-09-25T18:40:42;14.80;99.90
16867;DHT22;8550;52.596;13.320;2022-09-25T18:45:47;14.80;99.90
16867;DHT22;8550;52.596;13.320;2022-09-25T18:50:51;14.70;99.90
16867;DHT22;8550;52.596;13.320;2022-09-25T18:55:54;14.50;99.90
16867;DHT22;8550;52.596;13.320;2022-09-25T19:00:57;14.40;99.90
16867;DHT22;8550;52.596;13.320;2022-09-25T19:06:02;14.40;99.90
16867;DHT22;8550;52.596;13.320;2022-09-25T19:11:11;14.40;99.90
16867;DHT22;8550;52.596;13.320;2022-09-25T19:16:13;14.40;99.90
16867;DHT22;8550;52.596;13.320;2022-09-25T19:21:17;14.20;99.90
16867;DHT22;8550;52.596;13.320;2022-09-25T19:26:23;14.20;99.90
16867;DHT22;8550;52.596;13.320;2022-09-25T19:31:26;14.10;99.90
16867;DHT22;8550;52.596;13.320;2022-09-25T19:36:32;14.10;99.90
16867;DHT22;8550;52.596;13.320;2022-09-25T19:41:35;14.10;99.90
16867;DHT22;8550;52.596;13.320;2022-09-25T19:46:40;14.10;99.90
16867;DHT22;8550;52.596;13.320;2022-09-25T19:51:44;14.10;99.90
16867;DHT22;8550;52.596;13.320;2022-09-25T19:56:45;14.10;99.90
16867;DHT22;8550;52.596;13.320;2022-09-25T20:01:47;14.00;99.90
16867;DHT22;8550;52.596;13.320;2022-09-25T20:06:51;14.00;99.90
16867;DHT22;8550;52.596;13.320;2022-09-25T20:11:54;14.00;99.90
16867;DHT22;8550;52.596;13.320;2022-09-25T20:16:56;14.00;99.90
16867;DHT22;8550;52.596;13.320;2022-09-25T20:22:00;13.90;99.90
16867;DHT22;8550;52.596;13.320;2022-09-25T20:27:01;13.80;99.90
16867;DHT22;8550;52.596;13.320;2022-09-25T20:32:03;13.80;99.90
16867;DHT22;8550;52.596;13.320;2022-09-25T20:37:07;13.80;99.90
16867;DHT22;8550;52.596;13.320;2022-09-25T20:42:10;13.70;99.90
16867;DHT22;8550;52.596;13.320;2022-09-25T20:47:11;13.80;99.90
16867;DHT22;8550;52.596;13.320;2022-09-25T20:52:14;13.70;99.90
16867;DHT22;8550;52.596;13.320;2022-09-25T20:57:17;13.70;99.90
16867;DHT22;8550;52.596;13.320;2022-09-25T21:02:18;13.60;99.90
16867;DHT22;8550;52.596;13.320;2022-09-25T21:07:22;13.70;99.90
16867;DHT22;8550;52.596;13.320;2022-09-25T21:12:26;13.70;99.90
16867;DHT22;8550;52.596;13.320;2022-09-25T21:17:28;13.70;99.90
16867;DHT22;8550;52.596;13.320;2022-09-25T21:22:31;13.60;99.90
16867;DHT22;8550;52.596;13.320;2022-09-25T21:27:33;13.60;99.90
16867;DHT22;8550;52.596;13.320;2022-09-25T21:32:35;13.60;99.90
16867;DHT22;8550;52.596;13.320;2022-09-25T21:37:38;13.50;99.90
16867;DHT22;8550;52.596;13.320;2022-09-25T21:42:41;13.40;99.90
16867;DHT22;8550;52.596;13.320;2022-09-25T21:47:42;13.30;99.90
16867;DHT22;8550;52.596;13.320;2022-09-25T21:52:45;13.30;99.90
16867;DHT22;8550;52.596;13.320;2022-09-25T21:57:47;13.10;99.90
16867;DHT22;8550;52.596;13.320;2022-09-25T22:02:49;13.00;99.90
16867;DHT22;8550;52.596;13.320;2022-09-25T22:07:52;13.10;99.90
16867;DHT22;8550;52.596;13.320;2022-09-25T22:12:54;13.10;99.90
16867;DHT22;8550;52.596;13.320;2022-09-25T22:17:57;13.10;99.90
16867;DHT22;8550;52.596;13.320;2022-09-25T22:23:00;13.10;99.90
16867;DHT22;8550;52.596;13.320;2022-09-25T22:28:02;13.20;99.90
16867;DHT22;8550;52.596;13.320;2022-09-25T22:33:03;13.20;99.90
16867;DHT22;8550;52.596;13.320;2022-09-25T22:38:06;13.10;99.90
16867;DHT22;8550;52.596;13.320;2022-09-25T22:43:08;13.10;99.90
16867;DHT22;8550;52.596;13.320;2022-09-25T22:48:10;13.10;99.90
16867;DHT22;8550;52.596;13.320;2022-09-25T22:53:13;13.10;99.90
16867;DHT22;8550;52.596;13.320;2022-09-25T22:58:16;13.00;99.90
16867;DHT22;8550;52.596;13.320;2022-09-25T23:03:19;13.00;99.90
16867;DHT22;8550;52.596;13.320;2022-09-25T23:08:23;13.00;99.90
16867;DHT22;8550;52.596;13.320;2022-09-25T23:13:25;13.00;99.90
16867;DHT22;8550;52.596;13.320;2022-09-25T23:18:30;12.90;99.90
16867;DHT22;8550;52.596;13.320;2022-09-25T23:23:34;12.80;99.90
16867;DHT22;8550;52.596;13.320;2022-09-25T23:28:39;12.80;99.90
16867;DHT22;8550;52.596;13.320;2022-09-25T23:33:42;12.70;99.90
16867;DHT22;8550;52.596;13.320;2022-09-25T23:38:45;12.70;99.90
16867;DHT22;8550;52.596;13.320;2022-09-25T23:43:48;12.70;99.90
16867;DHT22;8550;52.596;13.320;2022-09-25T23:48:51;12.60;99.90
16867;DHT22;8550;52.596;13.320;2022-09-25T23:53:57;12.50;99.90
16867;DHT22;8550;52.596;13.320;2022-09-25T23:58:59;12.50;99.90
